Terminal Aerodrome Forecast
Issued by NWS Wilmington, OH

Current Version | Previous Version | Graphics & Text | Print | Product List | Glossary On
Versions: 1 2 3 4 5 6 7 8 9 10 11 12 13 14 15 16 17 18 19
951
FTUS41 KILN 100531
TAFILN
TAF
KILN 100531Z 1006/1106 24005KT P6SM SCT035
     FM100700 24005KT P6SM BKN025 OVC040
     FM101300 25008KT P6SM BKN080
     FM102300 00000KT P6SM BKN080=

USA.gov is the U.S. government's official web portal to all federal, state and local government web resources and services.